Time;durP1;ratioP1;P1;durP2;ratioP2;P2;SDS_P1;SDS_P2;PMS_P1;PMS_P2;Temp;Humidity;BMP_temperature;BMP_pressure;BME280_temperature;BME280_humidity;BME280_pressure;Samples;Min_cycle;Max_cycle;Signal;HPM_P1;HPM_P2
2023/07/19 00:01:05;;;;;;;1.90;1.80;;;21.10;99.90;;;;;;5099107;28;20201;-74
2023/07/19 00:03:32;;;;;;;2.40;1.90;;;21.30;99.90;;;;;;5094948;28;20201;-73
2023/07/19 00:06:01;;;;;;;2.10;1.90;;;21.50;99.90;;;;;;5098090;28;20200;-73
2023/07/19 00:08:31;;;;;;;2.83;2.10;;;21.60;99.90;;;;;;5098207;28;20244;-73
2023/07/19 00:10:59;;;;;;;2.28;1.95;;;21.70;99.90;;;;;;5097129;28;20258;-73
2023/07/19 00:13:26;;;;;;;2.22;2.03;;;21.80;99.90;;;;;;5097603;28;20237;-73
2023/07/19 00:15:54;;;;;;;2.10;1.90;;;21.90;99.90;;;;;;5098267;28;20246;-73
2023/07/19 00:18:21;;;;;;;3.83;2.15;;;21.90;99.90;;;;;;5097852;28;20682;-73
2023/07/19 00:20:48;;;;;;;2.28;1.95;;;22.00;99.90;;;;;;5113005;28;20361;-74
2023/07/19 00:23:15;;;;;;;1.92;1.75;;;22.00;99.90;;;;;;5117857;28;20200;-74
2023/07/19 00:25:45;;;;;;;2.17;1.98;;;22.00;99.90;;;;;;5105283;28;20240;-74
2023/07/19 00:28:12;;;;;;;1.88;1.77;;;22.00;99.90;;;;;;5101711;28;20220;-73
2023/07/19 00:30:39;;;;;;;1.73;1.60;;;22.00;99.90;;;;;;5098743;28;20202;-73
2023/07/19 00:33:06;;;;;;;4.07;2.05;;;21.80;99.90;;;;;;5101068;28;20288;-73
2023/07/19 00:35:33;;;;;;;1.90;1.70;;;21.60;99.90;;;;;;5100153;28;20293;-73
2023/07/19 00:38:00;;;;;;;2.55;1.70;;;21.60;99.90;;;;;;5101147;28;20217;-73
2023/07/19 00:40:27;;;;;;;2.95;1.90;;;21.60;99.90;;;;;;5103627;28;20227;-72
2023/07/19 00:42:57;;;;;;;2.78;2.08;;;21.50;99.90;;;;;;5095258;28;20281;-74
2023/07/19 00:45:25;;;;;;;4.88;2.38;;;21.30;99.90;;;;;;5100206;28;20197;-73
2023/07/19 00:47:54;;;;;;;3.08;2.03;;;21.20;99.90;;;;;;5101107;28;20923;-73
2023/07/19 00:50:21;;;;;;;2.35;1.80;;;21.20;99.90;;;;;;5100667;28;20279;-75
2023/07/19 00:52:49;;;;;;;2.33;1.92;;;21.30;99.90;;;;;;5099465;28;20245;-74
2023/07/19 00:55:16;;;;;;;1.85;1.65;;;21.30;99.90;;;;;;5102016;28;20189;-73
2023/07/19 00:57:43;;;;;;;3.03;1.77;;;21.20;99.90;;;;;;5100701;28;20212;-74
2023/07/19 01:00:12;;;;;;;2.08;1.80;;;21.20;99.90;;;;;;5099351;28;20235;-74
2023/07/19 01:02:40;;;;;;;1.77;1.48;;;21.30;99.90;;;;;;5100223;27;20197;-74
2023/07/19 01:05:07;;;;;;;2.08;1.85;;;21.30;99.90;;;;;;5103259;28;20317;-73
2023/07/19 01:07:34;;;;;;;1.92;1.52;;;21.40;99.90;;;;;;5102532;28;20240;-73
2023/07/19 01:10:01;;;;;;;4.63;1.70;;;21.50;99.90;;;;;;5100617;28;20228;-74
2023/07/19 01:12:28;;;;;;;1.98;1.58;;;21.50;99.90;;;;;;5101596;28;20236;-73
2023/07/19 01:14:55;;;;;;;1.95;1.73;;;21.50;99.90;;;;;;5101677;28;20213;-74
2023/07/19 01:17:23;;;;;;;1.77;1.67;;;21.40;99.90;;;;;;5102238;28;20213;-74
2023/07/19 01:19:50;;;;;;;1.85;1.58;;;21.50;99.90;;;;;;5106394;28;20204;-75
2023/07/19 01:22:18;;;;;;;1.70;1.60;;;21.50;99.90;;;;;;5101654;28;20204;-75
2023/07/19 01:24:46;;;;;;;4.00;1.95;;;21.60;99.90;;;;;;5101929;28;20193;-75
2023/07/19 01:27:13;;;;;;;2.20;2.00;;;21.70;99.90;;;;;;5103020;28;20229;-73
2023/07/19 01:29:40;;;;;;;3.20;1.60;;;21.70;99.90;;;;;;5099996;28;20224;-74
2023/07/19 01:32:08;;;;;;;1.98;1.77;;;21.60;99.90;;;;;;5100485;28;20212;-75
2023/07/19 01:34:34;;;;;;;2.28;2.00;;;21.60;99.90;;;;;;5099109;28;20312;-73
2023/07/19 01:37:01;;;;;;;1.92;1.63;;;21.60;99.90;;;;;;5103705;27;20873;-73
2023/07/19 01:39:28;;;;;;;2.25;1.70;;;21.70;99.90;;;;;;5100470;28;20837;-74
2023/07/19 01:41:57;;;;;;;2.75;1.73;;;21.80;99.90;;;;;;5103064;28;20204;-76
2023/07/19 01:44:24;;;;;;;2.10;1.45;;;21.80;99.90;;;;;;5104226;28;20674;-74
2023/07/19 01:46:51;;;;;;;2.63;1.75;;;21.80;99.90;;;;;;5108191;27;20193;-74
2023/07/19 01:49:17;;;;;;;2.80;2.20;;;21.70;99.90;;;;;;5112584;28;20266;-75
2023/07/19 01:51:44;;;;;;;2.95;1.70;;;21.60;99.90;;;;;;5109444;27;20251;-74
2023/07/19 01:54:11;;;;;;;1.88;1.63;;;21.50;99.90;;;;;;5105894;28;20205;-75
2023/07/19 01:56:38;;;;;;;2.55;1.83;;;21.50;99.90;;;;;;5105721;28;20275;-75
2023/07/19 01:59:07;;;;;;;2.10;1.90;;;21.50;99.90;;;;;;5101525;28;20252;-74
2023/07/19 02:01:33;;;;;;;1.75;1.65;;;21.60;99.90;;;;;;5101276;27;20250;-74
2023/07/19 02:04:00;;;;;;;2.47;1.67;;;21.60;99.90;;;;;;5098424;28;20730;-74
2023/07/19 02:06:27;;;;;;;3.47;1.77;;;21.60;99.90;;;;;;5101429;28;20270;-75
2023/07/19 02:08:54;;;;;;;1.75;1.65;;;21.60;99.90;;;;;;5100851;28;20209;-74
2023/07/19 02:11:22;;;;;;;3.45;1.60;;;21.60;99.90;;;;;;5099954;28;20246;-74
2023/07/19 02:13:49;;;;;;;5.05;1.80;;;21.60;99.90;;;;;;5097864;28;20298;-75
2023/07/19 02:16:17;;;;;;;2.03;1.77;;;21.60;99.90;;;;;;5111131;28;20213;-75
2023/07/19 02:18:44;;;;;;;2.03;1.67;;;21.60;99.90;;;;;;5121414;28;20238;-75
2023/07/19 02:21:11;;;;;;;1.88;1.70;;;21.60;99.90;;;;;;5103214;28;20623;-74
2023/07/19 02:23:38;;;;;;;2.05;1.85;;;21.60;99.90;;;;;;5104451;28;20227;-74
2023/07/19 02:26:05;;;;;;;2.17;1.95;;;21.60;99.90;;;;;;5096693;28;20196;-73
2023/07/19 02:28:32;;;;;;;2.28;1.80;;;21.60;99.90;;;;;;5103262;28;20861;-74
2023/07/19 02:30:59;;;;;;;2.15;1.70;;;21.60;99.90;;;;;;5103615;28;20204;-74
2023/07/19 02:33:27;;;;;;;1.98;1.80;;;21.60;99.90;;;;;;5103834;28;20213;-74
2023/07/19 02:35:55;;;;;;;4.20;1.88;;;21.60;99.90;;;;;;5098190;28;20228;-73
2023/07/19 02:38:22;;;;;;;3.00;1.88;;;21.50;99.90;;;;;;5100897;28;20262;-75
2023/07/19 02:40:49;;;;;;;2.00;1.90;;;21.40;99.90;;;;;;5098290;28;20596;-73
2023/07/19 02:43:16;;;;;;;2.13;1.48;;;21.30;99.90;;;;;;5102408;28;20232;-74
2023/07/19 02:45:43;;;;;;;3.00;1.85;;;21.30;99.90;;;;;;5097438;28;20204;-75
2023/07/19 02:48:10;;;;;;;2.22;1.48;;;21.30;99.90;;;;;;5101711;28;20297;-73
2023/07/19 02:50:44;;;;;;;3.65;2.00;;;21.40;99.90;;;;;;5098346;28;20201;-74
2023/07/19 02:53:11;;;;;;;2.13;1.50;;;21.40;99.90;;;;;;5097265;28;20231;-74
2023/07/19 02:55:38;;;;;;;2.60;1.60;;;21.50;99.90;;;;;;5097345;28;20280;-75
2023/07/19 02:58:05;;;;;;;3.83;1.85;;;21.40;99.90;;;;;;5097327;28;20289;-75
2023/07/19 03:00:32;;;;;;;1.70;1.60;;;21.40;99.90;;;;;;5097613;28;20217;-74
2023/07/19 03:02:59;;;;;;;2.70;1.73;;;21.30;99.90;;;;;;5097681;28;20224;-74
2023/07/19 03:05:26;;;;;;;2.00;1.80;;;21.30;99.90;;;;;;5099628;28;20610;-74
2023/07/19 03:07:54;;;;;;;1.88;1.70;;;21.30;99.90;;;;;;5097674;28;20217;-74
2023/07/19 03:10:21;;;;;;;1.80;1.63;;;21.30;99.90;;;;;;5102626;28;20306;-73
2023/07/19 03:12:48;;;;;;;2.92;1.92;;;21.30;99.90;;;;;;5098867;28;20232;-75
2023/07/19 03:15:15;;;;;;;2.55;1.80;;;21.30;99.90;;;;;;5100229;28;20270;-75
2023/07/19 03:17:42;;;;;;;2.92;1.95;;;21.30;99.90;;;;;;5100930;28;20224;-75
2023/07/19 03:20:10;;;;;;;2.25;1.75;;;21.40;99.90;;;;;;5099271;28;20220;-74
2023/07/19 03:22:37;;;;;;;3.10;2.00;;;21.40;99.90;;;;;;5097280;28;20205;-74
2023/07/19 03:25:06;;;;;;;3.08;1.58;;;21.30;99.90;;;;;;5100679;28;20552;-76
2023/07/19 03:27:34;;;;;;;1.60;1.50;;;21.20;99.90;;;;;;5099226;28;20873;-75
2023/07/19 03:30:01;;;;;;;3.03;1.55;;;21.10;99.90;;;;;;5100491;28;20233;-74
2023/07/19 03:32:29;;;;;;;2.75;1.70;;;21.10;99.90;;;;;;5097889;28;20212;-74
2023/07/19 03:34:56;;;;;;;2.63;1.80;;;21.10;99.90;;;;;;5099764;28;20592;-75
2023/07/19 03:37:23;;;;;;;2.22;2.03;;;21.00;99.90;;;;;;5101246;28;20254;-73
2023/07/19 03:39:50;;;;;;;2.30;2.10;;;21.00;99.90;;;;;;5097145;28;20203;-74
2023/07/19 03:42:18;;;;;;;1.67;1.58;;;21.10;99.90;;;;;;5094462;28;20201;-74
2023/07/19 03:44:45;;;;;;;1.95;1.80;;;21.10;99.90;;;;;;5097618;28;20197;-74
2023/07/19 03:47:12;;;;;;;2.50;1.80;;;21.00;99.90;;;;;;5098306;28;20938;-73
2023/07/19 03:49:39;;;;;;;1.80;1.70;;;20.90;99.90;;;;;;5101675;28;20253;-75
2023/07/19 03:52:07;;;;;;;2.13;1.90;;;20.90;99.90;;;;;;5097568;28;20246;-73
2023/07/19 03:54:34;;;;;;;2.33;1.80;;;21.00;99.90;;;;;;5102454;28;20216;-73
2023/07/19 03:57:01;;;;;;;2.35;1.95;;;20.90;99.90;;;;;;5101927;28;20208;-74
2023/07/19 03:59:31;;;;;;;1.83;1.73;;;20.90;99.90;;;;;;5106989;28;20211;-74
2023/07/19 04:01:58;;;;;;;3.45;2.30;;;20.90;99.90;;;;;;5105908;28;20193;-75
2023/07/19 04:04:25;;;;;;;2.25;1.90;;;20.90;99.90;;;;;;5101049;28;20207;-75
2023/07/19 04:06:51;;;;;;;3.13;1.80;;;20.80;99.90;;;;;;5108467;28;20197;-74
2023/07/19 04:09:18;;;;;;;1.95;1.80;;;20.80;99.90;;;;;;5103374;28;20574;-73
2023/07/19 04:11:45;;;;;;;2.47;2.15;;;20.80;99.90;;;;;;5104417;28;20197;-73
2023/07/19 04:14:12;;;;;;;1.80;1.70;;;20.80;99.90;;;;;;5130979;27;20196;-75
2023/07/19 04:16:41;;;;;;;3.00;1.85;;;20.90;99.90;;;;;;5107367;28;21219;-74
2023/07/19 04:19:08;;;;;;;3.92;1.60;;;20.90;99.90;;;;;;5100800;28;20245;-74
2023/07/19 04:21:35;;;;;;;2.20;1.77;;;21.00;99.90;;;;;;5102643;28;20221;-74
2023/07/19 04:24:02;;;;;;;1.83;1.73;;;21.00;99.90;;;;;;5102898;28;20498;-74
2023/07/19 04:26:29;;;;;;;2.20;2.00;;;21.00;99.90;;;;;;5103546;28;20233;-74
2023/07/19 04:28:57;;;;;;;2.30;1.70;;;21.00;99.90;;;;;;5103123;28;20217;-74
2023/07/19 04:31:24;;;;;;;2.65;1.60;;;21.00;99.90;;;;;;5101945;28;20254;-74
2023/07/19 04:33:52;;;;;;;2.25;2.05;;;21.00;99.90;;;;;;5101705;28;20780;-74
2023/07/19 04:36:19;;;;;;;3.53;1.73;;;21.00;99.90;;;;;;5102184;28;20628;-74
2023/07/19 04:38:46;;;;;;;3.40;1.90;;;21.00;99.90;;;;;;5105469;28;20239;-73
2023/07/19 04:41:13;;;;;;;1.95;1.67;;;21.00;99.90;;;;;;5103807;28;20196;-74
2023/07/19 04:43:40;;;;;;;1.67;1.58;;;21.10;99.90;;;;;;5102623;28;20189;-74
2023/07/19 04:46:07;;;;;;;1.73;1.63;;;21.20;99.90;;;;;;5103441;28;20239;-75
2023/07/19 04:48:34;;;;;;;1.75;1.60;;;21.40;99.90;;;;;;5105672;28;20266;-73
2023/07/19 04:51:03;;;;;;;2.55;2.35;;;21.40;99.90;;;;;;5096668;28;20201;-73
2023/07/19 04:53:30;;;;;;;4.30;2.28;;;21.60;99.90;;;;;;5105881;28;20207;-74
2023/07/19 04:55:56;;;;;;;2.10;1.90;;;21.50;99.90;;;;;;5110833;28;20224;-75
2023/07/19 04:58:24;;;;;;;2.10;1.90;;;21.30;99.90;;;;;;5108117;28;20213;-76
2023/07/19 05:00:51;;;;;;;2.45;2.25;;;21.40;99.90;;;;;;5110353;28;20200;-76
2023/07/19 05:03:18;;;;;;;2.78;1.80;;;21.50;99.90;;;;;;5112127;28;20265;-76
2023/07/19 05:05:47;;;;;;;5.72;2.33;;;21.50;99.90;;;;;;5112293;28;20227;-76
2023/07/19 05:08:16;;;;;;;2.38;2.00;;;21.50;99.90;;;;;;5113641;28;20219;-77
2023/07/19 05:10:43;;;;;;;5.78;1.95;;;21.60;99.90;;;;;;5110421;28;20193;-77
2023/07/19 05:13:10;;;;;;;1.70;1.60;;;21.70;99.90;;;;;;5112988;28;20215;-76
2023/07/19 05:15:37;;;;;;;1.90;1.70;;;22.00;99.90;;;;;;5112009;28;20217;-78
2023/07/19 05:18:04;;;;;;;2.58;1.98;;;22.20;99.90;;;;;;5112116;28;20221;-76
2023/07/19 05:20:31;;;;;;;3.00;2.00;;;22.50;99.90;;;;;;5114474;27;20201;-76
2023/07/19 05:22:58;;;;;;;3.03;2.20;;;22.60;99.90;;;;;;5113979;28;20201;-77
2023/07/19 05:25:26;;;;;;;5.20;2.70;;;22.60;99.90;;;;;;5107033;28;20204;-77
2023/07/19 05:27:53;;;;;;;2.47;2.20;;;22.60;99.90;;;;;;5115398;28;20819;-77
2023/07/19 05:30:21;;;;;;;5.85;2.50;;;22.50;99.90;;;;;;5112417;28;20294;-76
2023/07/19 05:32:48;;;;;;;3.40;2.50;;;22.40;99.90;;;;;;5110690;28;20197;-77
2023/07/19 05:35:15;;;;;;;3.20;2.47;;;22.30;99.90;;;;;;5109860;28;20227;-76
2023/07/19 05:37:42;;;;;;;4.45;3.08;;;22.20;99.90;;;;;;5113873;28;20270;-77
2023/07/19 05:40:10;;;;;;;4.03;2.75;;;22.20;99.90;;;;;;5114618;28;20200;-76
2023/07/19 05:42:38;;;;;;;3.75;2.70;;;22.20;99.90;;;;;;5110803;28;20197;-75
2023/07/19 05:45:06;;;;;;;6.15;2.95;;;22.20;99.90;;;;;;5116533;28;20205;-76
2023/07/19 05:47:33;;;;;;;4.40;2.80;;;22.00;99.90;;;;;;5110191;28;20217;-76
2023/07/19 05:50:00;;;;;;;3.38;3.00;;;22.10;99.90;;;;;;5111762;28;20625;-76
2023/07/19 05:52:28;;;;;;;4.63;3.15;;;22.10;99.90;;;;;;5110422;28;20275;-76
2023/07/19 05:54:55;;;;;;;5.38;2.78;;;22.10;99.90;;;;;;5113811;28;20221;-77
2023/07/19 05:57:22;;;;;;;4.47;2.90;;;22.20;99.90;;;;;;5108335;28;20221;-76
2023/07/19 05:59:51;;;;;;;5.68;2.72;;;22.30;99.90;;;;;;5113321;28;20196;-76
2023/07/19 06:02:18;;;;;;;2.65;2.35;;;22.40;99.90;;;;;;5114193;28;20208;-76
2023/07/19 06:04:47;;;;;;;3.10;2.50;;;22.60;99.90;;;;;;5112068;28;20207;-77
2023/07/19 06:07:15;;;;;;;3.58;2.90;;;22.70;99.90;;;;;;5116367;28;20282;-76
2023/07/19 06:09:42;;;;;;;4.03;2.67;;;22.80;99.90;;;;;;5131348;28;20201;-77
2023/07/19 06:12:10;;;;;;;7.88;3.00;;;22.70;99.90;;;;;;5113817;28;20235;-76
2023/07/19 06:14:37;;;;;;;4.70;2.92;;;22.60;99.90;;;;;;5114217;28;20219;-76
2023/07/19 06:17:06;;;;;;;5.07;3.08;;;22.50;99.90;;;;;;5110014;28;20197;-76
2023/07/19 06:19:32;;;;;;;5.55;2.95;;;22.40;99.90;;;;;;5104411;28;20204;-76
2023/07/19 06:22:00;;;;;;;5.10;2.42;;;22.40;99.90;;;;;;5107735;28;20261;-76
2023/07/19 06:24:27;;;;;;;3.42;2.92;;;22.40;99.90;;;;;;5104591;28;20190;-76
2023/07/19 06:26:54;;;;;;;3.90;2.65;;;22.60;99.90;;;;;;5110935;28;20201;-76
2023/07/19 06:29:23;;;;;;;3.75;2.33;;;22.80;99.90;;;;;;5105666;28;20208;-77
2023/07/19 06:31:50;;;;;;;3.00;2.55;;;23.10;99.90;;;;;;5101059;28;20261;-75
2023/07/19 06:34:18;;;;;;;4.85;2.90;;;23.30;99.90;;;;;;5104640;28;20194;-77
2023/07/19 06:36:45;;;;;;;3.85;2.50;;;23.40;99.90;;;;;;5109867;28;20189;-76
2023/07/19 06:39:12;;;;;;;3.17;2.60;;;23.30;99.90;;;;;;5100741;28;20220;-76
2023/07/19 06:41:39;;;;;;;3.25;2.50;;;23.40;99.90;;;;;;5108080;28;20190;-76
2023/07/19 06:44:06;;;;;;;3.97;3.03;;;23.50;99.90;;;;;;5107494;28;20232;-75
2023/07/19 06:46:33;;;;;;;6.70;2.60;;;23.50;99.90;;;;;;5109495;28;20189;-74
2023/07/19 06:49:00;;;;;;;6.68;2.92;;;23.60;99.90;;;;;;5104043;28;20259;-74
2023/07/19 06:51:28;;;;;;;5.78;2.95;;;23.60;99.90;;;;;;5109642;28;20920;-78
2023/07/19 06:53:55;;;;;;;5.18;2.53;;;23.70;99.90;;;;;;5106354;28;20255;-76
2023/07/19 06:56:22;;;;;;;6.80;2.78;;;24.00;99.90;;;;;;5105593;28;20398;-78
2023/07/19 06:58:50;;;;;;;3.72;2.72;;;24.20;99.90;;;;;;5096450;28;20248;-76
2023/07/19 07:01:17;;;;;;;3.55;2.60;;;24.20;99.90;;;;;;5095557;28;20917;-77
2023/07/19 07:03:44;;;;;;;4.68;2.63;;;24.40;99.90;;;;;;5095579;28;20269;-77
2023/07/19 07:06:11;;;;;;;4.03;2.58;;;24.30;99.90;;;;;;5093759;28;20721;-77
2023/07/19 07:08:39;;;;;;;4.55;2.80;;;24.40;99.90;;;;;;5097131;28;20879;-78
2023/07/19 07:11:06;;;;;;;4.07;2.90;;;24.40;99.90;;;;;;5092630;28;20283;-76
2023/07/19 07:13:33;;;;;;;3.25;2.70;;;24.40;99.90;;;;;;5093399;28;20734;-76
2023/07/19 07:16:00;;;;;;;4.78;2.78;;;24.50;99.90;;;;;;5094918;28;20256;-78
2023/07/19 07:18:27;;;;;;;5.57;2.97;;;24.50;99.90;;;;;;5090993;28;20307;-78
2023/07/19 07:20:54;;;;;;;5.38;2.92;;;24.40;99.90;;;;;;5095008;28;20189;-76
2023/07/19 07:23:21;;;;;;;4.28;2.70;;;24.60;99.90;;;;;;5098118;28;20394;-76
2023/07/19 07:25:54;;;;;;;3.85;3.00;;;24.80;99.90;;;;;;5094128;28;20573;-77
2023/07/19 07:28:21;;;;;;;4.57;3.28;;;25.00;99.90;;;;;;5094298;28;20217;-77
2023/07/19 07:30:48;;;;;;;5.68;2.35;;;25.10;99.90;;;;;;5094655;28;20282;-77
2023/07/19 07:33:15;;;;;;;4.35;2.90;;;25.40;99.90;;;;;;5092050;28;20224;-77
2023/07/19 07:35:41;;;;;;;3.22;2.90;;;25.70;99.90;;;;;;5092017;28;20315;-76
2023/07/19 07:38:09;;;;;;;3.85;2.75;;;25.80;99.90;;;;;;5090910;28;20308;-78
2023/07/19 07:40:36;;;;;;;3.25;2.90;;;25.80;99.90;;;;;;5096241;28;20201;-79
2023/07/19 07:43:05;;;;;;;3.33;2.42;;;25.90;99.90;;;;;;5093747;28;20215;-76
2023/07/19 07:45:31;;;;;;;3.95;3.13;;;25.80;99.90;;;;;;5090598;28;20217;-78
2023/07/19 07:47:58;;;;;;;6.07;3.35;;;25.70;99.90;;;;;;5095494;28;20309;-78
2023/07/19 07:50:26;;;;;;;5.18;2.53;;;25.50;99.90;;;;;;5092068;28;20284;-77
2023/07/19 07:52:53;;;;;;;8.70;3.53;;;25.30;99.90;;;;;;5090804;28;20200;-78
2023/07/19 07:55:19;;;;;;;4.68;2.90;;;25.30;99.90;;;;;;5094972;28;20248;-78
2023/07/19 07:57:46;;;;;;;4.95;3.20;;;25.20;99.90;;;;;;5091095;28;20303;-79
2023/07/19 08:00:16;;;;;;;3.90;2.80;;;25.40;99.90;;;;;;5091100;28;20200;-79
2023/07/19 08:02:42;;;;;;;3.50;2.78;;;25.40;99.90;;;;;;5097500;28;20201;-77
2023/07/19 08:05:10;;;;;;;4.22;2.80;;;25.40;99.90;;;;;;5126528;28;20193;-84
2023/07/19 08:07:37;;;;;;;5.03;3.10;;;25.40;99.90;;;;;;5095868;28;20248;-80
2023/07/19 08:10:04;;;;;;;2.70;2.50;;;25.40;99.90;;;;;;5095766;28;20262;-80
2023/07/19 08:12:31;;;;;;;3.90;2.75;;;25.30;99.90;;;;;;5089049;28;20228;-80
2023/07/19 08:14:58;;;;;;;5.35;2.97;;;25.10;99.90;;;;;;5090262;28;20288;-79
2023/07/19 08:17:27;;;;;;;3.08;2.78;;;24.90;99.90;;;;;;5092030;28;20373;-79
2023/07/19 08:19:54;;;;;;;2.60;2.40;;;24.70;99.90;;;;;;5090536;28;20193;-78
2023/07/19 08:22:25;;;;;;;2.70;2.45;;;24.50;99.90;;;;;;5088765;28;20675;-79
2023/07/19 08:24:52;;;;;;;3.30;2.65;;;24.30;99.90;;;;;;5093820;28;20292;-78
2023/07/19 08:27:19;;;;;;;3.25;2.80;;;24.20;99.90;;;;;;5090493;28;20221;-78
2023/07/19 08:29:46;;;;;;;2.90;2.60;;;24.10;99.90;;;;;;5093637;28;20313;-78
2023/07/19 08:32:13;;;;;;;3.88;2.85;;;24.00;99.90;;;;;;5092566;28;20348;-78
2023/07/19 08:34:43;;;;;;;3.15;2.72;;;23.80;99.90;;;;;;5091768;28;20216;-78
2023/07/19 08:37:10;;;;;;;3.10;2.42;;;23.60;99.90;;;;;;5096130;28;20248;-78
2023/07/19 08:39:37;;;;;;;2.58;2.17;;;23.50;99.90;;;;;;5095494;28;20194;-78
2023/07/19 08:42:05;;;;;;;3.88;2.53;;;23.40;99.90;;;;;;5099616;28;20242;-79
2023/07/19 08:44:32;;;;;;;3.72;2.30;;;23.30;99.90;;;;;;5099068;28;20197;-79
2023/07/19 08:46:59;;;;;;;2.95;2.45;;;23.30;99.90;;;;;;5097871;28;20216;-79
2023/07/19 08:49:26;;;;;;;3.17;2.33;;;23.40;99.90;;;;;;5096254;28;20796;-78
2023/07/19 08:51:56;;;;;;;3.58;2.50;;;23.40;99.90;;;;;;5098499;28;20197;-80
2023/07/19 08:54:23;;;;;;;2.20;2.00;;;23.30;99.90;;;;;;5100279;28;20208;-79
2023/07/19 08:56:50;;;;;;;1.90;1.80;;;23.30;99.90;;;;;;5096175;28;20228;-79
2023/07/19 08:59:17;;;;;;;2.50;2.20;;;23.40;99.90;;;;;;5096411;28;20240;-80
2023/07/19 09:01:44;;;;;;;5.57;2.42;;;23.40;99.90;;;;;;5097553;28;20781;-81
2023/07/19 09:04:11;;;;;;;5.45;2.65;;;23.30;99.90;;;;;;5098956;28;20230;-80
2023/07/19 09:06:40;;;;;;;3.10;2.70;;;23.30;99.90;;;;;;5097193;28;20790;-78
2023/07/19 09:09:12;;;;;;;3.90;2.72;;;23.20;99.90;;;;;;5100635;28;20774;-77
2023/07/19 09:11:44;;;;;;;2.75;2.30;;;23.20;99.90;;;;;;5095373;28;20202;-78
2023/07/19 09:14:11;;;;;;;3.17;2.88;;;23.00;99.90;;;;;;5095817;28;20211;-77
2023/07/19 09:16:38;;;;;;;3.40;3.10;;;22.90;99.90;;;;;;5096444;28;20324;-76
2023/07/19 09:19:05;;;;;;;6.03;3.10;;;22.90;99.90;;;;;;5099326;28;20229;-77
2023/07/19 09:21:38;;;;;;;6.90;2.63;;;22.90;99.90;;;;;;5097826;28;20243;-78
2023/07/19 09:24:05;;;;;;;3.25;2.95;;;22.80;99.90;;;;;;5098456;28;20224;-80
2023/07/19 09:26:50;;;;;;;3.55;3.25;;;22.70;99.90;;;;;;5097012;28;20232;-75
2023/07/19 09:29:17;;;;;;;6.22;3.67;;;22.60;99.90;;;;;;5093533;28;20231;-78
2023/07/19 09:31:53;;;;;;;5.45;3.35;;;22.30;99.90;;;;;;5098677;28;20212;-79
2023/07/19 09:34:22;;;;;;;7.05;4.22;;;22.00;99.90;;;;;;5097314;28;20204;-80
2023/07/19 09:36:51;;;;;;;7.25;3.80;;;21.60;99.90;;;;;;5099342;27;20691;-78
2023/07/19 09:39:18;;;;;;;6.15;4.00;;;21.40;99.90;;;;;;5099407;27;20269;-77
2023/07/19 09:41:46;;;;;;;4.10;3.65;;;21.30;99.90;;;;;;5098122;28;20828;-77
2023/07/19 09:44:16;;;;;;;3.58;3.28;;;21.20;99.90;;;;;;5101191;28;20663;-78
2023/07/19 09:46:45;;;;;;;3.80;3.10;;;21.30;99.90;;;;;;5100203;28;20583;-77
2023/07/19 09:49:13;;;;;;;3.50;3.20;;;21.40;99.90;;;;;;5098345;28;20669;-78
2023/07/19 09:51:41;;;;;;;4.28;3.85;;;21.70;99.90;;;;;;5098298;28;20647;-78
2023/07/19 09:54:10;;;;;;;4.07;3.53;;;21.90;99.90;;;;;;5098017;27;20199;-76
2023/07/19 09:56:38;;;;;;;6.03;3.65;;;22.10;99.90;;;;;;5097097;28;20223;-79
2023/07/19 09:59:08;;;;;;;5.13;3.42;;;22.60;99.90;;;;;;5111278;28;20370;-79
2023/07/19 10:01:36;;;;;;;4.93;3.25;;;23.10;99.90;;;;;;5121697;28;20695;-79
2023/07/19 10:04:22;;;;;;;2.58;2.38;;;23.50;99.90;;;;;;5098306;27;20315;-78
2023/07/19 10:06:49;;;;;;;2.80;2.55;;;24.20;99.90;;;;;;5100418;28;20224;-79
2023/07/19 10:09:38;;;;;;;4.03;2.92;;;24.90;99.90;;;;;;5097212;28;20213;-78
2023/07/19 10:12:25;;;;;;;3.28;2.40;;;25.40;99.90;;;;;;5093311;28;20200;-78
2023/07/19 10:14:54;;;;;;;2.67;2.20;;;25.70;99.90;;;;;;5097718;28;20197;-78
2023/07/19 10:17:22;;;;;;;4.55;2.97;;;25.90;99.90;;;;;;5093354;28;20304;-79
2023/07/19 10:20:09;;;;;;;4.18;2.72;;;26.20;99.90;;;;;;5093093;28;20225;-80
2023/07/19 10:22:52;;;;;;;6.55;2.75;;;26.30;99.90;;;;;;5094796;28;20217;-82
2023/07/19 10:25:23;;;;;;;3.10;2.38;;;26.60;99.90;;;;;;5093674;28;20910;-79
2023/07/19 10:28:01;;;;;;;3.60;2.50;;;26.70;99.90;;;;;;5091333;27;20695;-81
2023/07/19 10:30:54;;;;;;;3.97;2.80;;;26.90;99.90;;;;;;5093598;28;20291;-79
2023/07/19 10:33:25;;;;;;;3.78;2.80;;;26.90;99.90;;;;;;5091208;28;20205;-78
2023/07/19 10:35:54;;;;;;;4.53;2.85;;;26.80;99.90;;;;;;5094332;28;20224;-79
2023/07/19 10:38:22;;;;;;;2.97;2.55;;;26.90;99.90;;;;;;5094478;28;20967;-75
2023/07/19 10:40:56;;;;;;;2.78;2.33;;;27.00;99.90;;;;;;5090116;28;20255;-76
2023/07/19 10:43:24;;;;;;;3.22;2.47;;;27.30;99.90;;;;;;5092408;27;20949;-75
2023/07/19 10:45:52;;;;;;;1.92;1.75;;;27.50;99.90;;;;;;5092469;28;20197;-76
2023/07/19 10:48:20;;;;;;;2.55;1.58;;;27.50;99.90;;;;;;5099238;28;20771;-78
2023/07/19 10:50:48;;;;;;;2.10;1.90;;;27.40;99.90;;;;;;5093939;28;20232;-78
2023/07/19 10:53:15;;;;;;;3.17;2.17;;;27.30;99.90;;;;;;5093798;28;20254;-77
2023/07/19 10:55:44;;;;;;;4.45;2.53;;;27.10;99.90;;;;;;5094586;28;21028;-83
2023/07/19 10:58:12;;;;;;;3.35;2.00;;;26.70;99.90;;;;;;5096818;28;20220;-81
2023/07/19 11:00:43;;;;;;;3.28;1.95;;;26.40;99.90;;;;;;5099410;28;20197;-76
2023/07/19 11:03:13;;;;;;;2.50;1.90;;;26.10;99.90;;;;;;5096844;28;20300;-74
2023/07/19 11:05:41;;;;;;;3.05;2.10;;;26.00;99.90;;;;;;5094907;28;20208;-76
2023/07/19 11:08:09;;;;;;;2.35;1.58;;;25.90;99.90;;;;;;5095640;27;20267;-74
2023/07/19 11:10:37;;;;;;;2.70;2.03;;;26.00;99.90;;;;;;5095910;28;20280;-75
2023/07/19 11:13:04;;;;;;;3.67;1.90;;;26.40;99.90;;;;;;5096337;28;20197;-75
2023/07/19 11:15:31;;;;;;;1.77;1.58;;;26.60;99.90;;;;;;5097470;28;20202;-77
2023/07/19 11:17:59;;;;;;;2.15;1.65;;;26.70;99.90;;;;;;5092680;28;20224;-77
2023/07/19 11:20:31;;;;;;;2.00;1.80;;;26.80;99.90;;;;;;5097291;28;20894;-76
2023/07/19 11:23:07;;;;;;;2.13;1.90;;;26.90;99.90;;;;;;5095097;28;20204;-76
2023/07/19 11:25:38;;;;;;;1.98;1.77;;;27.20;99.90;;;;;;5095382;28;20240;-75
2023/07/19 11:28:06;;;;;;;2.22;1.70;;;27.40;99.90;;;;;;5090289;28;20304;-76
2023/07/19 11:30:39;;;;;;;2.70;1.67;;;27.50;99.90;;;;;;5094586;28;20576;-74
2023/07/19 11:33:07;;;;;;;1.90;1.60;;;27.70;99.90;;;;;;5092503;28;20291;-78
2023/07/19 11:35:34;;;;;;;4.22;1.92;;;27.90;99.90;;;;;;5096091;28;20287;-75
2023/07/19 11:38:02;;;;;;;1.70;1.60;;;27.80;99.90;;;;;;5089807;28;20305;-76
2023/07/19 11:40:29;;;;;;;1.83;1.45;;;27.80;99.90;;;;;;5094044;28;20324;-78
2023/07/19 11:42:58;;;;;;;1.85;1.75;;;27.80;99.90;;;;;;5090231;28;20632;-75
2023/07/19 11:45:26;;;;;;;1.75;1.63;;;28.10;99.90;;;;;;5091625;28;20229;-76
2023/07/19 11:47:56;;;;;;;1.85;1.67;;;28.10;99.90;;;;;;5088176;28;20240;-74
2023/07/19 11:50:24;;;;;;;1.95;1.75;;;28.20;99.90;;;;;;5095711;28;20197;-79
2023/07/19 11:52:54;;;;;;;1.67;1.40;;;28.40;99.90;;;;;;5091257;28;20201;-77
2023/07/19 11:55:22;;;;;;;3.88;1.60;;;28.60;99.90;;;;;;5094907;28;20240;-85
2023/07/19 11:57:51;;;;;;;2.67;1.92;;;28.60;99.90;;;;;;5093754;28;20248;-76
2023/07/19 12:00:21;;;;;;;2.20;1.90;;;28.90;99.90;;;;;;5092912;28;20284;-75
2023/07/19 12:02:50;;;;;;;2.55;1.90;;;29.00;99.90;;;;;;5089777;28;20573;-77
2023/07/19 12:05:19;;;;;;;1.90;1.58;;;29.20;99.90;;;;;;5092739;28;20336;-78
2023/07/19 12:07:47;;;;;;;1.35;1.23;;;29.30;99.90;;;;;;5091324;28;21045;-75
2023/07/19 12:10:14;;;;;;;1.80;1.65;;;29.40;99.90;;;;;;5091450;28;20201;-75
2023/07/19 12:12:41;;;;;;;2.20;1.60;;;29.30;99.90;;;;;;5093422;28;20280;-77
2023/07/19 12:15:11;;;;;;;1.67;1.58;;;29.30;99.90;;;;;;5094874;28;20726;-80
2023/07/19 12:17:39;;;;;;;2.25;1.65;;;29.20;99.90;;;;;;5093208;28;20308;-74
2023/07/19 12:20:08;;;;;;;2.40;1.88;;;29.10;99.90;;;;;;5096563;28;20298;-78
2023/07/19 12:22:35;;;;;;;2.55;1.63;;;29.30;99.90;;;;;;5094726;28;20229;-75
2023/07/19 12:25:03;;;;;;;2.00;1.70;;;29.40;99.90;;;;;;5097418;28;20252;-82
2023/07/19 12:27:30;;;;;;;2.33;1.55;;;29.50;99.90;;;;;;5092167;28;20275;-77
2023/07/19 12:29:58;;;;;;;1.85;1.60;;;29.70;99.90;;;;;;5097473;28;20283;-74
2023/07/19 12:32:27;;;;;;;1.92;1.50;;;29.40;99.90;;;;;;5097085;28;20204;-84
2023/07/19 12:34:55;;;;;;;2.15;1.70;;;29.50;99.90;;;;;;5097708;28;20294;-75
2023/07/19 12:37:23;;;;;;;2.90;1.67;;;29.20;99.90;;;;;;5094969;28;20237;-78
2023/07/19 12:39:51;;;;;;;1.85;1.65;;;29.10;99.90;;;;;;5095133;28;20196;-77
2023/07/19 12:42:18;;;;;;;2.10;1.60;;;29.20;99.90;;;;;;5092904;28;20205;-77
2023/07/19 12:44:45;;;;;;;1.92;1.67;;;29.40;99.90;;;;;;5097216;28;20898;-75
2023/07/19 12:47:11;;;;;;;2.22;1.90;;;29.60;99.90;;;;;;5096456;28;20284;-76
2023/07/19 12:49:38;;;;;;;3.60;1.90;;;29.50;99.90;;;;;;5095033;28;21198;-79
2023/07/19 12:52:10;;;;;;;1.85;1.70;;;29.20;99.90;;;;;;5095568;28;20292;-78